Forecast Period: 

6 am 31st  July 2021 to 12 pm  31st July 2021 

Synopsis:
Forecast Period: 

6 pm 30th July 2021 to 6 am  31st July 2021 

Synopsis:

The tail-end of a tropical wave is affecting the islands

Forecast:

Mostly cloudy and hazy with occasional light to moderate showers and a chance isolated thunderstorms

Weather Advisory/Warning:

Residents and motorists in areas prone to  flash-flooding  or near  rivers and streams should remain alert

Winds:

ENE-E at 20 – 35 km/h (12 – 22 mph)

Sea Conditions:

Slight to moderate in open water with swells from(1.0 – 2.0 m)

 

Marine Advisory/Warning:

None
Upcoming Tides:
 High: 12:15 pm         
 Low:

7:58 pm

 

 
Forecast:

Partly cloudy and hazy at first; becoming mostly cloudy with showers, some of which may be heavy with isolated thunderstorms

Weather Advisory/Warning:

Residents and motorists in areas prone to flooding and landslides or near rivers and streams should remain alert

Winds:

 E to ENE at 20 – 35 km/h (12 – 22 mph)

Sea Conditions:

Slight to moderate in open water; swells (1.0 – 2.0 m)

Marine Advisory/Warning:

None
Upcoming Tides:
 High: 11:16 pm(30th)  **** 12:15 pm
 Low:

****

05:30 pm

 07:58 pm

Aviation WX

[Source: ADDS]
METAR
TVSA 012200Z 06003KT 030V110 9999 SCT020 28/25 Q1016 NOSIG =
TVSA 011700Z 0118/0218 07006KT 9999 SCT020
TAF
TVSA 011700Z 0118/0218 07006KT 9999 SCT020 =
SR / SS: 09:49 / 22:31 UTC (Sunrise Sunset 2021-08-01)